createdAt,value
2023-01-07T00:01:59.735Z,4.53
2023-01-07T00:04:27.245Z,4.10
2023-01-07T00:06:54.675Z,4.03
2023-01-07T00:09:22.092Z,4.33
2023-01-07T00:11:49.556Z,4.00
2023-01-07T00:14:17.030Z,4.00
2023-01-07T00:16:44.714Z,4.80
2023-01-07T00:19:15.072Z,5.00
2023-01-07T00:21:42.581Z,5.03
2023-01-07T00:24:10.773Z,4.30
2023-01-07T00:26:38.906Z,4.80
2023-01-07T00:29:07.110Z,5.07
2023-01-07T00:31:35.774Z,4.93
2023-01-07T00:34:09.869Z,4.60
2023-01-07T00:36:43.648Z,5.30
2023-01-07T00:39:13.611Z,4.67
2023-01-07T00:41:41.215Z,5.27
2023-01-07T00:44:08.968Z,4.63
2023-01-07T00:46:36.523Z,4.80
2023-01-07T00:49:04.068Z,5.30
2023-01-07T00:51:31.608Z,4.33
2023-01-07T00:54:00.433Z,4.03
2023-01-07T00:56:27.989Z,4.07
2023-01-07T00:58:55.484Z,3.80
2023-01-07T01:01:23.427Z,4.83
2023-01-07T01:03:51.101Z,4.30
2023-01-07T01:06:18.581Z,4.60
2023-01-07T01:08:46.898Z,5.13
2023-01-07T01:11:16.519Z,5.20
2023-01-07T01:13:44.319Z,4.97
2023-01-07T01:16:13.202Z,5.03
2023-01-07T01:18:40.771Z,5.80
2023-01-07T01:21:09.237Z,4.80
2023-01-07T01:23:36.723Z,5.73
2023-01-07T01:26:05.243Z,5.40
2023-01-07T01:28:34.269Z,5.33
2023-01-07T01:31:02.156Z,5.37
2023-01-07T01:33:39.067Z,5.20
2023-01-07T01:36:07.934Z,4.90
2023-01-07T01:38:35.389Z,5.27
2023-01-07T01:41:03.324Z,5.10
2023-01-07T01:43:32.146Z,5.27
2023-01-07T01:46:03.096Z,5.77
2023-01-07T01:48:31.513Z,5.87
2023-01-07T01:50:59.104Z,5.77
2023-01-07T01:53:27.457Z,5.67
2023-01-07T01:55:56.635Z,5.63
2023-01-07T01:58:28.296Z,5.63
2023-01-07T02:00:56.990Z,4.83
2023-01-07T02:03:26.504Z,5.70
2023-01-07T02:05:54.155Z,5.33
2023-01-07T02:08:23.278Z,5.07
2023-01-07T02:11:00.649Z,5.87
2023-01-07T02:13:36.219Z,4.87
2023-01-07T02:16:06.545Z,5.33
2023-01-07T02:18:43.369Z,5.57
2023-01-07T02:21:17.705Z,5.33
2023-01-07T02:24:06.485Z,5.90
2023-01-07T02:27:07.308Z,6.00
2023-01-07T02:29:59.040Z,5.33
2023-01-07T02:32:35.914Z,5.57
2023-01-07T02:35:06.257Z,5.33
2023-01-07T02:37:39.082Z,5.07
2023-01-07T02:40:10.623Z,6.00
2023-01-07T02:42:42.406Z,5.60
2023-01-07T02:45:12.557Z,5.30
2023-01-07T02:47:44.219Z,5.20
2023-01-07T02:50:11.915Z,5.00
2023-01-07T02:52:39.513Z,4.93
2023-01-07T02:55:10.417Z,4.90
2023-01-07T02:57:56.974Z,5.77
2023-01-07T03:00:34.338Z,5.80
2023-01-07T03:03:13.832Z,5.10
2023-01-07T03:05:45.140Z,5.07
2023-01-07T03:08:21.597Z,5.40
2023-01-07T03:10:53.496Z,5.00
2023-01-07T03:13:22.516Z,5.30
2023-01-07T03:15:54.115Z,5.10
2023-01-07T03:18:26.023Z,5.67
2023-01-07T03:20:57.716Z,4.90
2023-01-07T03:23:27.929Z,5.17
2023-01-07T03:25:56.647Z,5.20
2023-01-07T03:28:27.748Z,4.93
2023-01-07T03:30:57.084Z,5.00
2023-01-07T03:33:27.878Z,5.80
2023-01-07T03:35:57.511Z,5.53
2023-01-07T03:38:25.890Z,4.87
2023-01-07T03:40:54.350Z,5.20
2023-01-07T03:43:22.191Z,6.03
2023-01-07T03:45:50.912Z,5.10
2023-01-07T03:48:18.406Z,5.87
2023-01-07T03:50:47.297Z,5.43
2023-01-07T03:53:14.930Z,6.07
2023-01-07T03:55:45.874Z,5.50
2023-01-07T03:58:14.022Z,5.27
2023-01-07T04:00:41.484Z,5.83
2023-01-07T04:03:17.164Z,5.47
2023-01-07T04:05:48.453Z,5.50
2023-01-07T04:08:15.959Z,5.53
2023-01-07T04:10:43.479Z,5.47
2023-01-07T04:13:12.942Z,5.57
2023-01-07T04:15:44.632Z,5.20
2023-01-07T04:18:12.388Z,5.83
2023-01-07T04:20:39.877Z,5.17
2023-01-07T04:23:08.700Z,5.80
2023-01-07T04:25:36.232Z,5.60
2023-01-07T04:28:07.228Z,5.40
2023-01-07T04:30:35.476Z,5.37
2023-01-07T04:33:03.059Z,5.33
2023-01-07T04:35:30.680Z,5.90
2023-01-07T04:37:58.591Z,5.13
2023-01-07T04:40:27.938Z,6.00
2023-01-07T04:42:55.705Z,5.53
2023-01-07T04:45:23.397Z,5.50
2023-01-07T04:47:51.129Z,5.23
2023-01-07T04:50:18.758Z,5.43
2023-01-07T04:52:46.377Z,5.77
2023-01-07T04:55:14.100Z,5.93
2023-01-07T04:57:43.270Z,5.07
2023-01-07T05:00:14.068Z,5.37
2023-01-07T05:02:42.013Z,5.53
2023-01-07T05:05:11.667Z,5.33
2023-01-07T05:07:39.974Z,4.90
2023-01-07T05:10:09.413Z,5.10
2023-01-07T05:12:37.642Z,5.30
2023-01-07T05:15:08.878Z,5.57
2023-01-07T05:17:39.577Z,4.67
2023-01-07T05:20:08.644Z,5.40
2023-01-07T05:22:37.956Z,5.17
2023-01-07T05:25:06.471Z,5.10
2023-01-07T05:27:33.919Z,6.00
2023-01-07T05:30:03.232Z,5.37
2023-01-07T05:32:32.092Z,5.10
2023-01-07T05:34:59.594Z,5.53
2023-01-07T05:37:28.009Z,4.70
2023-01-07T05:39:56.449Z,5.30
2023-01-07T05:42:24.644Z,5.60
2023-01-07T05:44:52.342Z,5.40
2023-01-07T05:47:19.767Z,4.60
2023-01-07T05:49:48.530Z,5.40
2023-01-07T05:52:16.213Z,4.80
2023-01-07T05:54:43.683Z,5.13
2023-01-07T05:57:11.230Z,5.10
2023-01-07T05:59:38.820Z,5.60
2023-01-07T06:02:06.288Z,5.40
2023-01-07T06:04:34.336Z,5.13
2023-01-07T06:07:03.191Z,5.23
2023-01-07T06:09:30.731Z,5.60
2023-01-07T06:11:58.459Z,5.17
2023-01-07T06:14:25.962Z,4.97
2023-01-07T06:16:53.438Z,4.93
2023-01-07T06:19:22.819Z,5.03
2023-01-07T06:21:50.591Z,4.93
2023-01-07T06:24:19.428Z,4.60
2023-01-07T06:26:46.917Z,4.47
2023-01-07T06:29:14.494Z,5.20
2023-01-07T06:31:41.975Z,4.30
2023-01-07T06:34:09.438Z,4.60
2023-01-07T06:36:36.921Z,4.73
2023-01-07T06:39:04.816Z,5.10
2023-01-07T06:41:33.623Z,8.70
2023-01-07T06:44:01.132Z,7.50
2023-01-07T06:46:28.709Z,7.93
2023-01-07T06:48:56.393Z,7.13
2023-01-07T06:51:23.870Z,6.93
2023-01-07T06:53:51.352Z,7.80
2023-01-07T06:56:18.805Z,6.70
2023-01-07T06:58:47.641Z,6.20
2023-01-07T07:01:15.368Z,5.77
2023-01-07T07:03:42.977Z,5.03
2023-01-07T07:06:10.479Z,5.80
2023-01-07T07:08:37.928Z,6.97
2023-01-07T07:11:05.571Z,6.00
2023-01-07T07:13:33.011Z,5.47
2023-01-07T07:16:01.820Z,5.47
2023-01-07T07:18:30.502Z,4.33
2023-01-07T07:20:58.562Z,4.80
2023-01-07T07:23:26.008Z,4.67
2023-01-07T07:25:53.436Z,4.77
2023-01-07T07:28:20.876Z,4.93
2023-01-07T07:30:48.510Z,4.37
2023-01-07T07:33:19.115Z,4.43
2023-01-07T07:35:46.885Z,4.73
2023-01-07T07:38:14.408Z,4.33
2023-01-07T07:40:41.829Z,4.47
2023-01-07T07:43:12.309Z,4.50
2023-01-07T07:45:40.389Z,4.53
2023-01-07T07:48:08.405Z,4.57
2023-01-07T07:50:37.344Z,4.50
2023-01-07T07:53:05.105Z,4.20
2023-01-07T07:55:32.667Z,3.90
2023-01-07T07:58:00.124Z,4.07
2023-01-07T08:00:28.003Z,4.13
2023-01-07T08:02:58.125Z,4.93
2023-01-07T08:05:25.812Z,4.63
2023-01-07T08:07:54.899Z,5.27
2023-01-07T08:10:22.736Z,4.53
2023-01-07T08:12:50.534Z,4.53
2023-01-07T08:15:18.458Z,3.70
2023-01-07T08:17:46.200Z,4.37
2023-01-07T08:20:13.889Z,4.17
2023-01-07T08:22:41.309Z,4.23
2023-01-07T08:25:10.619Z,4.23
2023-01-07T08:27:38.067Z,3.97
2023-01-07T08:30:05.778Z,3.90
2023-01-07T08:32:33.173Z,3.67
2023-01-07T08:35:00.639Z,3.73
2023-01-07T08:37:30.082Z,4.00
2023-01-07T08:39:57.553Z,4.43
2023-01-07T08:42:26.742Z,3.93
2023-01-07T08:44:54.215Z,4.10
2023-01-07T08:47:21.700Z,4.20
2023-01-07T08:49:49.157Z,4.10
2023-01-07T08:52:16.617Z,4.10
2023-01-07T08:54:44.054Z,3.87
2023-01-07T08:57:11.504Z,4.03
2023-01-07T08:59:40.817Z,4.03
2023-01-07T09:02:08.540Z,4.03
2023-01-07T09:04:36.065Z,4.20
2023-01-07T09:07:03.532Z,4.00
2023-01-07T09:09:30.977Z,3.83
2023-01-07T09:11:58.393Z,3.73
2023-01-07T09:14:25.999Z,4.23
2023-01-07T09:16:54.829Z,3.93
2023-01-07T09:19:22.355Z,4.50
2023-01-07T09:21:51.211Z,4.70
2023-01-07T09:24:18.744Z,4.53
2023-01-07T09:26:46.241Z,4.77
2023-01-07T09:29:13.732Z,4.70
2023-01-07T09:31:41.291Z,4.68
2023-01-07T09:34:10.132Z,4.43
2023-01-07T09:36:37.515Z,4.40
2023-01-07T09:39:05.060Z,4.90
2023-01-07T09:41:37.428Z,5.37
2023-01-07T09:44:10.758Z,5.20
2023-01-07T09:46:38.240Z,5.97
2023-01-07T09:49:06.548Z,6.03
2023-01-07T09:51:38.092Z,6.03
2023-01-07T09:54:06.740Z,6.13
2023-01-07T09:56:35.073Z,6.03
2023-01-07T09:59:03.327Z,6.20
2023-01-07T10:01:32.963Z,6.90
2023-01-07T10:04:06.552Z,7.67
2023-01-07T10:06:43.840Z,6.87
2023-01-07T10:09:16.769Z,6.60
2023-01-07T10:11:49.218Z,7.27
2023-01-07T10:14:39.928Z,6.90
2023-01-07T10:17:10.328Z,6.90
2023-01-07T10:19:42.727Z,7.33
2023-01-07T10:22:17.466Z,7.13
2023-01-07T10:24:47.014Z,7.17
2023-01-07T10:27:15.166Z,7.17
2023-01-07T10:29:44.595Z,6.70
2023-01-07T10:32:14.349Z,6.63
2023-01-07T10:34:45.050Z,7.00
2023-01-07T10:37:17.245Z,7.20
2023-01-07T10:39:52.355Z,6.83
2023-01-07T10:42:24.014Z,7.30
2023-01-07T10:45:09.896Z,6.57
2023-01-07T10:47:42.727Z,6.93
2023-01-07T10:50:22.800Z,6.80
2023-01-07T10:52:56.869Z,6.90
2023-01-07T10:55:35.546Z,7.90
2023-01-07T10:58:03.475Z,7.00
2023-01-07T11:00:31.118Z,7.30
2023-01-07T11:02:59.924Z,6.53
2023-01-07T11:05:33.769Z,6.70
2023-01-07T11:08:03.816Z,6.17
2023-01-07T11:10:33.044Z,7.20
2023-01-07T11:13:03.697Z,6.50
2023-01-07T11:15:32.375Z,6.60
2023-01-07T11:18:01.579Z,6.30
2023-01-07T11:20:44.773Z,6.20
2023-01-07T11:23:20.420Z,6.60
2023-01-07T11:25:48.005Z,6.53
2023-01-07T11:28:19.064Z,6.73
2023-01-07T11:30:47.269Z,6.97
2023-01-07T11:33:20.660Z,7.90
2023-01-07T11:35:52.097Z,6.97
2023-01-07T11:38:31.170Z,7.00
2023-01-07T11:41:00.678Z,7.40
2023-01-07T11:43:32.615Z,6.57
2023-01-07T11:46:19.877Z,6.97
2023-01-07T11:48:49.915Z,7.07
2023-01-07T11:51:17.859Z,6.23
2023-01-07T11:53:47.829Z,7.00
2023-01-07T11:56:23.270Z,7.00
2023-01-07T11:58:51.745Z,6.77
2023-01-07T12:01:19.896Z,7.53
2023-01-07T12:04:03.994Z,7.03
2023-01-07T12:06:32.349Z,7.00
2023-01-07T12:09:05.131Z,6.47
2023-01-07T12:11:33.854Z,7.60
2023-01-07T12:14:06.703Z,7.60
2023-01-07T12:16:34.769Z,7.37
2023-01-07T12:19:08.927Z,7.07
2023-01-07T12:21:38.391Z,7.20
2023-01-07T12:24:29.641Z,7.53
2023-01-07T12:27:03.932Z,6.90
2023-01-07T12:29:38.582Z,6.83
2023-01-07T12:32:12.861Z,7.17
2023-01-07T12:34:47.633Z,7.20
2023-01-07T12:37:25.364Z,7.03
2023-01-07T12:39:57.032Z,7.47
2023-01-07T12:42:28.060Z,6.80
2023-01-07T12:44:56.547Z,7.30
2023-01-07T12:47:32.569Z,6.73
2023-01-07T12:50:03.887Z,6.77
2023-01-07T12:52:36.267Z,6.73
2023-01-07T12:55:05.357Z,8.10
2023-01-07T12:57:35.623Z,6.80
2023-01-07T13:00:08.244Z,6.97
2023-01-07T13:02:39.829Z,6.70
2023-01-07T13:05:11.890Z,6.77
2023-01-07T13:07:43.861Z,6.90
2023-01-07T13:10:13.885Z,6.60
2023-01-07T13:12:47.639Z,7.87
2023-01-07T13:15:21.525Z,6.90
2023-01-07T13:17:50.909Z,6.50
2023-01-07T13:20:22.605Z,6.77
2023-01-07T13:22:52.609Z,6.50
2023-01-07T13:25:27.116Z,5.90
2023-01-07T13:28:08.971Z,6.20
2023-01-07T13:30:40.528Z,6.27
2023-01-07T13:33:12.721Z,6.77
2023-01-07T13:35:54.640Z,5.73
2023-01-07T13:38:29.721Z,6.57
2023-01-07T13:41:09.118Z,6.57
2023-01-07T13:43:46.781Z,6.10
2023-01-07T13:46:15.851Z,6.27
2023-01-07T13:48:48.013Z,6.23
2023-01-07T13:51:15.643Z,5.87
2023-01-07T13:53:47.897Z,6.00
2023-01-07T13:56:34.109Z,6.20
2023-01-07T13:59:02.903Z,5.77
2023-01-07T14:01:32.738Z,5.90
2023-01-07T14:04:02.505Z,5.77
2023-01-07T14:06:39.863Z,6.60
2023-01-07T14:09:23.395Z,6.07
2023-01-07T14:12:03.334Z,6.03
2023-01-07T14:14:35.356Z,5.67
2023-01-07T14:17:11.279Z,5.80
2023-01-07T14:19:42.357Z,5.90
2023-01-07T14:22:13.997Z,5.90
2023-01-07T14:24:55.987Z,6.07
2023-01-07T14:27:41.544Z,5.97
2023-01-07T14:30:20.416Z,5.43
2023-01-07T14:32:48.243Z,6.33
2023-01-07T14:35:24.989Z,5.63
2023-01-07T14:37:52.404Z,6.23
2023-01-07T14:40:40.151Z,5.63
2023-01-07T14:43:40.929Z,5.77
2023-01-07T14:46:09.869Z,5.60
2023-01-07T14:48:37.590Z,5.07
2023-01-07T14:51:27.704Z,5.30
2023-01-07T14:54:13.075Z,5.97
2023-01-07T14:56:45.204Z,5.80
2023-01-07T14:59:24.689Z,5.60
2023-01-07T15:01:55.404Z,5.03
2023-01-07T15:04:35.738Z,5.73
2023-01-07T15:07:04.769Z,5.67
2023-01-07T15:09:51.510Z,5.53
2023-01-07T15:12:38.430Z,5.43
2023-01-07T15:15:25.588Z,5.20
2023-01-07T15:17:54.592Z,5.00
2023-01-07T15:20:22.474Z,4.90
2023-01-07T15:22:56.783Z,4.70
2023-01-07T15:25:28.493Z,4.60
2023-01-07T15:27:59.858Z,4.93
2023-01-07T15:30:36.611Z,4.80
2023-01-07T15:33:12.568Z,4.70
2023-01-07T15:35:41.439Z,4.67
2023-01-07T15:38:20.812Z,5.50
2023-01-07T15:40:48.315Z,5.77
2023-01-07T15:43:20.600Z,5.67
2023-01-07T15:45:48.839Z,5.20
2023-01-07T15:48:17.625Z,4.90
2023-01-07T15:50:45.682Z,5.50
2023-01-07T15:53:22.868Z,5.10
2023-01-07T15:55:55.355Z,15.37
2023-01-07T15:58:24.567Z,17.53
2023-01-07T16:00:52.799Z,13.37
2023-01-07T16:03:22.252Z,8.93
2023-01-07T16:05:50.185Z,6.80
2023-01-07T16:08:19.123Z,7.23
2023-01-07T16:10:58.360Z,5.90
2023-01-07T16:13:25.806Z,14.87
2023-01-07T16:15:55.018Z,11.43
2023-01-07T16:18:23.967Z,9.20
2023-01-07T16:20:53.480Z,5.87
2023-01-07T16:23:22.310Z,5.60
2023-01-07T16:25:51.287Z,5.47
2023-01-07T16:28:21.318Z,4.93
2023-01-07T16:30:48.996Z,14.50
2023-01-07T16:33:18.330Z,45.57
2023-01-07T16:35:48.436Z,47.80
2023-01-07T16:38:17.226Z,16.77
2023-01-07T16:40:45.991Z,24.23
2023-01-07T16:43:33.386Z,12.30
2023-01-07T16:46:18.851Z,8.70
2023-01-07T16:48:46.364Z,29.20
2023-01-07T16:51:32.592Z,118.37
2023-01-07T16:54:21.504Z,121.50
2023-01-07T16:56:49.464Z,41.90
2023-01-07T16:59:17.040Z,18.63
2023-01-07T17:01:44.838Z,13.47
2023-01-07T17:04:18.247Z,11.37
2023-01-07T17:06:45.975Z,10.83
2023-01-07T17:09:21.472Z,9.27
2023-01-07T17:11:50.057Z,11.00
2023-01-07T17:14:44.716Z,25.87
2023-01-07T17:17:20.451Z,14.93
2023-01-07T17:19:50.940Z,12.57
2023-01-07T17:22:31.987Z,10.03
2023-01-07T17:25:09.601Z,7.93
2023-01-07T17:27:40.398Z,7.37
2023-01-07T17:30:08.636Z,9.73
2023-01-07T17:32:37.372Z,9.93
2023-01-07T17:35:05.217Z,11.93
2023-01-07T17:37:32.854Z,11.37
2023-01-07T17:40:00.327Z,11.37
2023-01-07T17:42:47.955Z,22.77
2023-01-07T17:45:16.645Z,11.33
2023-01-07T17:47:44.120Z,10.83
2023-01-07T17:50:12.976Z,13.23
2023-01-07T17:52:40.595Z,12.27
2023-01-07T17:55:08.312Z,10.43
2023-01-07T17:57:37.105Z,10.40
2023-01-07T18:00:04.908Z,11.00
2023-01-07T18:02:39.730Z,9.97
2023-01-07T18:05:09.932Z,9.90
2023-01-07T18:07:37.428Z,11.07
2023-01-07T18:10:05.129Z,10.13
2023-01-07T18:12:31.635Z,9.77
2023-01-07T18:15:01.662Z,8.90
2023-01-07T18:17:29.363Z,7.77
2023-01-07T18:19:57.210Z,8.73
2023-01-07T18:22:25.345Z,9.07
2023-01-07T18:24:52.876Z,9.50
2023-01-07T18:27:20.373Z,9.83
2023-01-07T18:29:47.776Z,9.63
2023-01-07T18:32:16.657Z,9.50
2023-01-07T18:34:44.111Z,9.20
2023-01-07T18:37:11.541Z,11.23
2023-01-07T18:39:39.087Z,11.13
2023-01-07T18:42:06.821Z,13.63
2023-01-07T18:44:34.347Z,13.43
2023-01-07T18:47:01.807Z,11.10
2023-01-07T18:49:30.655Z,13.40
2023-01-07T18:51:58.139Z,11.63
2023-01-07T18:54:25.560Z,11.80
2023-01-07T18:56:53.019Z,12.27
2023-01-07T18:59:20.482Z,14.87
2023-01-07T19:01:48.284Z,13.97
2023-01-07T19:04:15.902Z,13.10
2023-01-07T19:06:44.782Z,13.60
2023-01-07T19:09:12.273Z,13.53
2023-01-07T19:11:39.779Z,12.97
2023-01-07T19:14:07.185Z,22.07
2023-01-07T19:16:34.681Z,22.97
2023-01-07T19:19:04.097Z,30.20
2023-01-07T19:21:31.532Z,26.47
2023-01-07T19:24:03.615Z,19.77
2023-01-07T19:26:31.396Z,18.30
2023-01-07T19:28:58.826Z,15.07
2023-01-07T19:31:26.404Z,20.10
2023-01-07T19:33:53.937Z,31.93
2023-01-07T19:36:21.417Z,32.03
2023-01-07T19:38:49.482Z,23.67
2023-01-07T19:41:19.025Z,16.43
2023-01-07T19:43:48.554Z,12.60
2023-01-07T19:46:16.705Z,12.53
2023-01-07T19:48:44.225Z,12.37
2023-01-07T19:51:11.756Z,12.23
2023-01-07T19:53:39.384Z,10.87
2023-01-07T19:56:07.803Z,10.07
2023-01-07T19:58:37.321Z,10.57
2023-01-07T20:01:05.461Z,9.80
2023-01-07T20:03:33.091Z,10.80
2023-01-07T20:06:03.861Z,10.17
2023-01-07T20:08:31.285Z,10.77
2023-01-07T20:10:59.674Z,11.53
2023-01-07T20:13:27.896Z,10.70
2023-01-07T20:15:56.709Z,11.67
2023-01-07T20:18:24.138Z,10.83
2023-01-07T20:20:58.732Z,11.37
2023-01-07T20:23:26.268Z,11.03
2023-01-07T20:25:53.831Z,10.90
2023-01-07T20:28:21.519Z,10.63
2023-01-07T20:30:49.062Z,13.03
2023-01-07T20:33:17.866Z,11.77
2023-01-07T20:35:46.604Z,11.73
2023-01-07T20:38:14.122Z,14.23
2023-01-07T20:40:41.702Z,12.47
2023-01-07T20:43:09.607Z,13.30
2023-01-07T20:45:38.494Z,12.27
2023-01-07T20:48:06.158Z,12.30
2023-01-07T20:50:36.011Z,13.10
2023-01-07T20:53:03.454Z,12.37
2023-01-07T20:55:30.984Z,12.70
2023-01-07T20:57:58.445Z,13.20
2023-01-07T21:00:26.251Z,12.87
2023-01-07T21:02:53.967Z,12.70
2023-01-07T21:05:22.852Z,13.03
2023-01-07T21:07:51.847Z,14.63
2023-01-07T21:10:19.985Z,13.80
2023-01-07T21:12:47.555Z,14.17
2023-01-07T21:15:15.662Z,14.90
2023-01-07T21:17:43.547Z,15.07
2023-01-07T21:20:13.040Z,14.43
2023-01-07T21:22:40.481Z,14.03
2023-01-07T21:25:11.221Z,14.30
2023-01-07T21:27:38.775Z,13.63
2023-01-07T21:30:07.159Z,13.60
2023-01-07T21:32:34.689Z,13.87
2023-01-07T21:35:02.253Z,14.13
2023-01-07T21:37:29.716Z,13.57
2023-01-07T21:39:57.168Z,14.57
2023-01-07T21:42:26.034Z,13.13
2023-01-07T21:44:53.493Z,16.67
2023-01-07T21:47:20.922Z,13.97
2023-01-07T21:49:49.631Z,12.93
2023-01-07T21:52:17.109Z,14.03
2023-01-07T21:54:44.575Z,14.53
2023-01-07T21:57:11.999Z,13.50
2023-01-07T21:59:40.789Z,16.40
2023-01-07T22:02:08.239Z,14.10
2023-01-07T22:04:35.727Z,13.63
2023-01-07T22:07:03.177Z,14.43
2023-01-07T22:09:30.605Z,13.80
2023-01-07T22:11:58.029Z,12.53
2023-01-07T22:14:26.151Z,12.83
2023-01-07T22:16:55.719Z,12.67
2023-01-07T22:19:25.749Z,12.97
2023-01-07T22:21:53.677Z,15.03
2023-01-07T22:24:21.180Z,12.20
2023-01-07T22:26:48.662Z,12.20
2023-01-07T22:29:17.409Z,10.50
2023-01-07T22:31:48.106Z,12.17
2023-01-07T22:34:16.962Z,11.43
2023-01-07T22:36:46.881Z,10.63
2023-01-07T22:39:16.547Z,12.10
2023-01-07T22:41:44.842Z,12.33
2023-01-07T22:44:14.136Z,15.10
2023-01-07T22:46:43.509Z,12.63
2023-01-07T22:49:11.020Z,11.80
2023-01-07T22:51:41.551Z,12.17
2023-01-07T22:54:09.253Z,11.87
2023-01-07T22:56:36.803Z,11.20
2023-01-07T22:59:04.322Z,11.93
2023-01-07T23:01:32.080Z,11.53
2023-01-07T23:03:59.852Z,13.80
2023-01-07T23:06:27.853Z,13.10
2023-01-07T23:08:56.740Z,12.50
2023-01-07T23:11:41.919Z,12.40
2023-01-07T23:14:09.448Z,14.40
2023-01-07T23:16:36.955Z,13.60
2023-01-07T23:19:04.504Z,12.47
2023-01-07T23:21:32.881Z,13.43
2023-01-07T23:24:03.233Z,13.70
2023-01-07T23:26:30.646Z,14.73
2023-01-07T23:28:58.092Z,15.13
2023-01-07T23:31:25.599Z,14.87
2023-01-07T23:33:53.085Z,13.80
2023-01-07T23:36:20.606Z,14.70
2023-01-07T23:38:48.479Z,15.40
2023-01-07T23:41:17.799Z,14.63
2023-01-07T23:43:45.234Z,14.70
2023-01-07T23:46:13.308Z,14.37
2023-01-07T23:48:40.772Z,14.30
2023-01-07T23:51:08.783Z,14.17
2023-01-07T23:53:36.532Z,13.67
2023-01-07T23:56:04.807Z,13.53
2023-01-07T23:58:33.676Z,14.27
